Aviation Digital Data Service (ADDS)

Output produced by METARs form (0400 UTC 31 October 2014)
found at http://www.aviationweather.gov/adds/metars/
 
KIPT 310354Z AUTO 35006KT 10SM CLR 03/00 A3003 RMK AO2 SLP173 T00330000
KIPT 310254Z AUTO 00000KT 10SM CLR 04/00 A3004 RMK AO2 SLP175 T00390000 53001
KIPT 310154Z 00000KT 10SM FEW046 07/01 A3003 RMK AO2 SLP171 T00670006
KIPT 310054Z 34003KT 10SM OVC048 09/01 A3003 RMK AO2 SLP172 T00890006
KIPT 302354Z 00000KT 10SM BKN050 OVC060 09/01 A3004 RMK AO2 SLP173 T00940006 10133 20094 51008
KIPT 302254Z 00000KT 10SM OVC055 11/00 A3003 RMK AO2 SLP172 T01060000
KIPT 302154Z 03003KT 10SM BKN055 11/00 A3002 RMK AO2 SLP166 T01110000
KIPT 302054Z 01006KT 10SM BKN055 12/00 A3001 RMK AO2 SLP164 T01170000 55004
KIPT 301954Z 34007KT 10SM OVC050 12/01 A3001 RMK AO2 SLP164 T01170006
KIPT 301854Z 32008KT 10SM BKN049 12/01 A3001 RMK AO2 SLP164 T01220006
KIPT 301754Z 36006KT 10SM OVC047 11/01 A3002 RMK AO2 SLP168 T01110006 10117 20078 58009
KIPT 301654Z 36007KT 10SM OVC048 11/01 A3004 RMK AO2 SLP173 T01110011
KIPT 301554Z 36005KT 10SM OVC042 11/01 A3005 RMK AO2 SLP177 T01060011
KIPT 301454Z 31009KT 10SM OVC041 10/02 A3005 RMK AO2 SLP178 T01000022 51008
KIPT 301354Z 25005KT 10SM SCT033 10/03 A3004 RMK AO2 SLP174 T01000033
KIPT 301254Z 00000KT 10SM FEW041 SCT048 08/04 A3004 RMK AO2 SLP175 T00780039
KIPT 301154Z 26006KT 10SM OVC036 08/03 A3003 RMK AO2 SLP170 70001 T00780033 10078 20039 53015
KIPT 301054Z 00000KT 10SM FEW033 OVC070 07/04 A3001 RMK AO2 SLP164 T00670039
KIPT 300954Z AUTO 00000KT 10SM FEW037 BKN055 OVC075 07/03 A3000 RMK AO2 SLP160 T00670033
KIPT 300854Z AUTO 21004KT 10SM OVC035 06/03 A2998 RMK AO2 SLP153 T00560033 53005
KIPT 300754Z AUTO 00000KT 10SM BKN043 BKN080 04/02 A2997 RMK AO2 SLP151 T00440022
KIPT 300654Z AUTO 00000KT 10SM SCT080 05/02 A2997 RMK AO2 SLP150 T00500022
KIPT 300554Z AUTO 00000KT 10SM CLR 06/03 A2997 RMK AO2 SLP149 T00560028 10094 20044 53002
KIPT 300454Z AUTO 00000KT 10SM CLR 07/03 A2996 RMK AO2 SLP147 T00670033 402170056
KIPT 300354Z AUTO 05003KT 10SM OVC075 08/03 A2996 RMK AO2 SLP145 T00780033
KIPT 300254Z AUTO 00000KT 10SM OVC075 08/03 A2996 RMK AO2 SLP146 T00830028 51005
KIPT 300154Z 00000KT 10SM OVC070 09/03 A2996 RMK AO2 SLP145 T00890028
KIPT 300054Z 00000KT 10SM OVC070 09/02 A2995 RMK AO2 SLP142 T00940022
KIPT 292354Z 00000KT 10SM OVC070 09/03 A2994 RMK AO2 SLP140 T00890028 10156 20089 53020
KIPT 292254Z 26004KT 10SM CLR 11/02 A2993 RMK AO2 SLP135 T01060017
KIPT 292154Z 29005KT 10SM FEW055 13/02 A2990 RMK AO2 SLP124 T01330022
KIPT 292054Z 28008KT 10SM CLR 16/02 A2988 RMK AO2 SLP118 T01560022 55005
KIPT 291954Z 30007KT 10SM CLR 15/03 A2988 RMK AO2 SLP117 T01500028
KIPT 291854Z VRB06KT 10SM CLR 15/06 A2989 RMK AO2 SLP120 T01500056
KIPT 291754Z 00000KT 10SM SCT120 13/06 A2990 RMK AO2 RAB1655E26 SLP123 P0001 60001 T01330061 10150 20128 58015
KIPT 291654Z 25009KT 10SM BKN085 OVC110 14/04 A2991 RMK AO2 SLP129 T01390044